Terminal Aerodrome Forecast
Issued by NWS

Home | Current Version | Previous Version | Text Only | Print | Product List | Glossary On
Versions: 1 2 3 4 5 6 7 8 9 10 11 12 13 14 15 16
412
FTUS42 KMLB 231121
TAFSFB
TAF
KSFB 231121Z 2312/2412 00000KT P6SM FEW020 FEW100 SCT250
     FM231500 12006KT P6SM SCT040 BKN250
     FM231800 12008KT P6SM VCTS BKN040CB
     FM232100 12008KT P6SM SCT040 BKN250
     FM240100 VRB02KT P6SM SKC=

USA.gov is the U.S. government's official web portal to all federal, state and local government web resources and services.